createdAt,value
2023-03-29T00:00:14.648Z,18700.1543
2023-03-29T00:01:35.051Z,18704.7695
2023-03-29T00:02:17.918Z,18700.5840
2023-03-29T00:03:19.729Z,18703.3848
2023-03-29T00:04:21.226Z,18700.7695
2023-03-29T00:05:22.853Z,18700.0000
2023-03-29T00:06:24.532Z,18702.6914
2023-03-29T00:07:26.183Z,18700.6914
2023-03-29T00:08:27.836Z,18701.6152
2023-03-29T00:09:29.484Z,18699.0762
2023-03-29T00:10:31.120Z,18700.6914
2023-03-29T00:11:32.800Z,18701.6152
2023-03-29T00:12:34.428Z,18698.6914
2023-03-29T00:13:36.128Z,18698.7695
2023-03-29T00:14:37.734Z,18695.1543
2023-03-29T00:15:39.405Z,18696.6152
2023-03-29T00:16:41.071Z,18697.0762
2023-03-29T00:17:42.767Z,18695.7695
2023-03-29T00:18:44.385Z,18694.0000
2023-03-29T00:19:46.023Z,18695.7695
2023-03-29T00:20:47.666Z,18695.3086
2023-03-29T00:21:49.322Z,18693.0762
2023-03-29T00:22:50.967Z,18695.2305
2023-03-29T00:23:52.670Z,18694.7695
2023-03-29T00:24:54.319Z,18695.7695
2023-03-29T00:25:55.957Z,18690.8457
2023-03-29T00:26:57.610Z,18692.8457
2023-03-29T00:27:59.268Z,18691.3848
2023-03-29T00:29:00.943Z,18694.5391
2023-03-29T00:30:02.570Z,18692.6152
2023-03-29T00:31:04.430Z,18689.6152
2023-03-29T00:32:05.877Z,18690.3848
2023-03-29T00:33:07.554Z,18689.0000
2023-03-29T00:34:09.199Z,18691.3848
2023-03-29T00:35:10.825Z,18689.3086
2023-03-29T00:36:12.497Z,18686.2305
2023-03-29T00:37:14.112Z,18688.6914
2023-03-29T00:38:15.798Z,18688.3848
2023-03-29T00:39:17.449Z,18685.0762
2023-03-29T00:40:19.099Z,18686.3086
2023-03-29T00:41:20.734Z,18686.6152
2023-03-29T00:42:22.407Z,18685.1543
2023-03-29T00:43:24.041Z,18685.0762
2023-03-29T00:44:25.744Z,18690.3086
2023-03-29T00:45:27.354Z,18687.0762
2023-03-29T00:46:29.108Z,18688.3848
2023-03-29T00:47:30.671Z,18684.1543
2023-03-29T00:48:32.383Z,18688.0000
2023-03-29T00:49:33.994Z,18682.6914
2023-03-29T00:50:35.647Z,18682.7695
2023-03-29T00:51:37.291Z,18685.3086
2023-03-29T00:52:38.950Z,18682.2305
2023-03-29T00:53:40.580Z,18682.2305
2023-03-29T00:54:42.294Z,18681.4609
2023-03-29T00:55:43.895Z,18682.1543
2023-03-29T00:56:45.578Z,18681.4609
2023-03-29T00:57:47.200Z,18683.5391
2023-03-29T00:58:48.871Z,18678.9238
2023-03-29T00:59:50.579Z,18681.2305
2023-03-29T01:00:52.206Z,18681.7695
2023-03-29T01:01:53.871Z,18678.9238
2023-03-29T01:02:55.538Z,18678.7695
2023-03-29T01:03:57.154Z,18681.9238
2023-03-29T01:04:58.817Z,18679.1543
2023-03-29T01:06:00.462Z,18678.8457
2023-03-29T01:07:02.159Z,18677.9238
2023-03-29T01:08:03.757Z,18676.6914
2023-03-29T01:09:05.419Z,18679.8457
2023-03-29T01:10:07.085Z,18673.0000
2023-03-29T01:11:08.735Z,18681.1543
2023-03-29T01:12:10.388Z,18676.4609
2023-03-29T01:13:12.043Z,18676.0762
2023-03-29T01:14:13.684Z,18672.7695
2023-03-29T01:15:15.398Z,18673.0000
2023-03-29T01:16:17.094Z,18677.9238
2023-03-29T01:17:18.683Z,18677.5391
2023-03-29T01:18:20.307Z,18675.2305
2023-03-29T01:19:21.977Z,18674.2305
2023-03-29T01:20:23.635Z,18673.5391
2023-03-29T01:21:25.285Z,18671.6914
2023-03-29T01:22:26.931Z,18674.3848
2023-03-29T01:23:28.599Z,18673.0762
2023-03-29T01:24:30.225Z,18670.6914
2023-03-29T01:25:31.918Z,18672.4609
2023-03-29T01:26:33.540Z,18671.3848
2023-03-29T01:27:35.208Z,18670.0000
2023-03-29T01:28:36.847Z,18669.2305
2023-03-29T01:29:38.507Z,18670.0762
2023-03-29T01:30:40.173Z,18671.7695
2023-03-29T01:31:41.902Z,18669.0000
2023-03-29T01:32:43.450Z,18667.6152
2023-03-29T01:33:45.142Z,18666.2305
2023-03-29T01:34:46.802Z,18670.1543
2023-03-29T01:35:48.521Z,18668.4609
2023-03-29T01:36:50.073Z,18669.2305
2023-03-29T01:37:51.760Z,18668.6152
2023-03-29T01:38:53.401Z,18666.9238
2023-03-29T01:39:55.061Z,18667.8457
2023-03-29T01:40:56.722Z,18661.3086
2023-03-29T01:41:58.367Z,18668.9238
2023-03-29T01:43:00.024Z,18663.8457
2023-03-29T01:44:01.692Z,18669.5391
2023-03-29T01:45:03.325Z,18668.0000
2023-03-29T01:46:05.454Z,18667.7695
2023-03-29T01:47:06.630Z,18668.6914
2023-03-29T01:48:08.303Z,18665.7695
2023-03-29T01:49:09.950Z,18666.4609
2023-03-29T01:50:11.620Z,18660.3848
2023-03-29T01:51:13.316Z,18662.9238
2023-03-29T01:52:14.941Z,18661.1543
2023-03-29T01:53:16.572Z,18662.3848
2023-03-29T01:54:18.245Z,18658.8457
2023-03-29T01:55:19.879Z,18660.2305
2023-03-29T01:56:21.571Z,18656.3848
2023-03-29T01:57:23.276Z,18653.4609
2023-03-29T01:58:24.861Z,18655.4609
2023-03-29T01:59:26.500Z,18652.6914
2023-03-29T02:00:28.152Z,18654.6914
2023-03-29T02:01:29.841Z,18647.2305
2023-03-29T02:02:31.560Z,18647.9238
2023-03-29T02:03:33.199Z,18647.3086
2023-03-29T02:04:34.796Z,18649.3848
2023-03-29T02:05:36.409Z,18647.9238
2023-03-29T02:06:38.100Z,18645.0762
2023-03-29T02:07:39.713Z,18644.0762
2023-03-29T02:08:41.386Z,18639.0762
2023-03-29T02:09:43.022Z,18642.3848
2023-03-29T02:10:44.692Z,18641.5391
2023-03-29T02:11:46.353Z,18640.2305
2023-03-29T02:12:48.001Z,18640.3848
2023-03-29T02:13:49.641Z,18636.6152
2023-03-29T02:14:51.304Z,18639.7695
2023-03-29T02:15:53.117Z,18638.1543
2023-03-29T02:16:54.633Z,18639.1543
2023-03-29T02:17:56.262Z,18634.0000
2023-03-29T02:18:57.933Z,18637.0000
2023-03-29T02:19:59.549Z,18633.2305
2023-03-29T02:21:01.441Z,18639.0762
2023-03-29T02:22:02.892Z,18634.6914
2023-03-29T02:23:04.537Z,18633.3848
2023-03-29T02:24:06.156Z,18634.8457
2023-03-29T02:25:07.841Z,18635.3848
2023-03-29T02:26:09.460Z,18636.5391
2023-03-29T02:27:11.178Z,18634.7695
2023-03-29T02:28:12.781Z,18629.6914
2023-03-29T02:29:14.446Z,18630.0762
2023-03-29T02:30:16.083Z,18633.1543
2023-03-29T02:31:17.788Z,18631.1543
2023-03-29T02:32:19.405Z,18632.0762
2023-03-29T02:33:21.048Z,18632.4609
2023-03-29T02:34:22.756Z,18633.3086
2023-03-29T02:35:24.359Z,18633.0000
2023-03-29T02:36:25.987Z,18630.3848
2023-03-29T02:37:27.686Z,18630.7695
2023-03-29T02:38:29.303Z,18628.2305
2023-03-29T02:39:30.972Z,18631.6914
2023-03-29T02:40:32.609Z,18630.6914
2023-03-29T02:41:34.262Z,18629.0762
2023-03-29T02:42:35.949Z,18627.4609
2023-03-29T02:43:37.572Z,18629.1543
2023-03-29T02:44:39.278Z,18624.4609
2023-03-29T02:45:40.936Z,18627.0000
2023-03-29T02:46:42.691Z,18631.6152
2023-03-29T02:47:44.364Z,18631.0000
2023-03-29T02:48:45.887Z,18627.0000
2023-03-29T02:49:50.343Z,18626.6152
2023-03-29T02:50:49.215Z,18628.1543
2023-03-29T02:51:50.844Z,18626.0762
2023-03-29T02:52:52.562Z,18627.7695
2023-03-29T02:53:54.148Z,18629.3848
2023-03-29T02:54:55.829Z,18628.3086
2023-03-29T02:55:57.449Z,18627.1543
2023-03-29T02:56:59.160Z,18624.6914
2023-03-29T02:58:00.780Z,18628.3086
2023-03-29T02:59:02.433Z,18627.4609
2023-03-29T03:00:04.075Z,18623.8457
2023-03-29T03:01:05.730Z,18625.2305
2023-03-29T03:02:07.435Z,18625.3086
2023-03-29T03:03:09.214Z,18622.6914
2023-03-29T03:04:10.749Z,18629.6152
2023-03-29T03:05:12.352Z,18627.2305
2023-03-29T03:06:14.931Z,18623.0762
2023-03-29T03:07:15.663Z,18626.9238
2023-03-29T03:08:17.304Z,18625.0000
2023-03-29T03:09:18.949Z,18623.9238
2023-03-29T03:10:20.601Z,18623.1543
2023-03-29T03:11:22.260Z,18624.6152
2023-03-29T03:12:23.902Z,18626.6152
2023-03-29T03:13:25.590Z,18626.0762
2023-03-29T03:14:27.209Z,18623.9238
2023-03-29T03:15:28.875Z,18623.8457
2023-03-29T03:16:30.588Z,18622.8457
2023-03-29T03:17:32.195Z,18623.6914
2023-03-29T03:18:33.998Z,18624.0000
2023-03-29T03:19:35.485Z,18625.4609
2023-03-29T03:20:37.095Z,18623.3848
2023-03-29T03:21:38.786Z,18625.3848
2023-03-29T03:22:40.420Z,18622.8457
2023-03-29T03:23:42.123Z,18626.1543
2023-03-29T03:24:43.704Z,18621.1543
2023-03-29T03:25:45.366Z,18624.0762
2023-03-29T03:26:47.016Z,18623.4609
2023-03-29T03:27:48.691Z,18622.2305
2023-03-29T03:28:50.351Z,18621.4609
2023-03-29T03:29:51.982Z,18622.7695
2023-03-29T03:30:53.640Z,18618.6152
2023-03-29T03:31:55.310Z,18623.3848
2023-03-29T03:32:56.953Z,18621.9238
2023-03-29T03:33:58.594Z,18616.9238
2023-03-29T03:35:00.216Z,18621.4609
2023-03-29T03:36:01.983Z,18620.9238
2023-03-29T03:37:03.522Z,18622.8457
2023-03-29T03:38:05.195Z,18622.1543
2023-03-29T03:39:06.841Z,18622.6914
2023-03-29T03:40:08.495Z,18620.0000
2023-03-29T03:41:10.133Z,18621.0762
2023-03-29T03:42:11.804Z,18621.0762
2023-03-29T03:43:13.434Z,18621.0762
2023-03-29T03:44:15.134Z,18619.0000
2023-03-29T03:45:16.745Z,18619.7695
2023-03-29T03:46:18.500Z,18621.3086
2023-03-29T03:47:20.046Z,18621.6914
2023-03-29T03:48:21.726Z,18617.3086
2023-03-29T03:49:23.408Z,18619.0000
2023-03-29T03:50:25.024Z,18622.0000
2023-03-29T03:51:26.666Z,18619.5391
2023-03-29T03:52:28.336Z,18620.4609
2023-03-29T03:53:29.973Z,18619.6914
2023-03-29T03:54:31.664Z,18620.6914
2023-03-29T03:55:33.309Z,18622.1543
2023-03-29T03:56:34.964Z,18619.8457
2023-03-29T03:57:36.584Z,18623.9238
2023-03-29T03:58:38.254Z,18618.2305
2023-03-29T03:59:39.919Z,18621.3086
2023-03-29T04:00:41.563Z,18621.0762
2023-03-29T04:01:43.208Z,18619.6152
2023-03-29T04:02:44.904Z,18617.6914
2023-03-29T04:03:46.543Z,18621.0762
2023-03-29T04:04:48.188Z,18616.4609
2023-03-29T04:05:49.812Z,18618.4609
2023-03-29T04:06:51.497Z,18616.3086
2023-03-29T04:07:53.121Z,18617.0000
2023-03-29T04:08:54.792Z,18618.0762
2023-03-29T04:09:56.462Z,18617.1543
2023-03-29T04:10:58.107Z,18615.7695
2023-03-29T04:11:59.745Z,18617.0000
2023-03-29T04:13:01.462Z,18619.0762
2023-03-29T04:14:03.056Z,18617.7695
2023-03-29T04:15:04.748Z,18615.4609
2023-03-29T04:16:06.392Z,18618.6152
2023-03-29T04:17:08.052Z,18617.5391
2023-03-29T04:18:09.757Z,18619.2305
2023-03-29T04:19:11.349Z,18619.6152
2023-03-29T04:20:13.015Z,18617.3848
2023-03-29T04:21:14.648Z,18618.4609
2023-03-29T04:22:16.284Z,18617.0000
2023-03-29T04:23:17.975Z,18616.8457
2023-03-29T04:24:19.604Z,18614.7695
2023-03-29T04:25:21.294Z,18612.6914
2023-03-29T04:26:22.915Z,18613.1543
2023-03-29T04:27:24.565Z,18615.6914
2023-03-29T04:28:26.253Z,18616.3086
2023-03-29T04:29:27.853Z,18617.0762
2023-03-29T04:30:29.546Z,18615.8457
2023-03-29T04:31:31.272Z,18614.0000
2023-03-29T04:32:32.855Z,18610.6914
2023-03-29T04:33:34.472Z,18613.9238
2023-03-29T04:34:36.140Z,18616.5391
2023-03-29T04:35:37.851Z,18618.4609
2023-03-29T04:36:39.453Z,18613.0000
2023-03-29T04:37:41.078Z,18615.2305
2023-03-29T04:38:46.097Z,18612.6914
2023-03-29T04:39:44.380Z,18614.9238
2023-03-29T04:40:46.072Z,18614.1543
2023-03-29T04:41:47.687Z,18613.4609
2023-03-29T04:42:49.365Z,18613.7695
2023-03-29T04:43:51.000Z,18612.5391
2023-03-29T04:44:52.698Z,18627.7695
2023-03-29T04:45:54.379Z,18947.6152
2023-03-29T04:46:55.992Z,19140.7695
2023-03-29T04:47:57.663Z,19221.6914
2023-03-29T04:48:59.317Z,19250.3086
2023-03-29T04:50:00.912Z,19308.0762
2023-03-29T04:51:02.777Z,19306.8457
2023-03-29T04:52:04.226Z,19267.5391
2023-03-29T04:53:05.896Z,19242.5391
2023-03-29T04:54:07.530Z,19212.0762
2023-03-29T04:55:09.232Z,19151.3848
2023-03-29T04:56:10.858Z,19107.6914
2023-03-29T04:57:12.559Z,18884.9238
2023-03-29T04:58:14.121Z,18663.4609
2023-03-29T04:59:15.795Z,18737.3086
2023-03-29T05:00:17.463Z,18806.7695
2023-03-29T05:01:19.171Z,18897.1543
2023-03-29T05:02:20.736Z,18927.4609
2023-03-29T05:03:22.418Z,18922.5391
2023-03-29T05:04:24.065Z,18916.6152
2023-03-29T05:05:25.732Z,18893.6152
2023-03-29T05:06:27.376Z,18862.4609
2023-03-29T05:07:29.085Z,18825.7695
2023-03-29T05:08:30.664Z,18805.4609
2023-03-29T05:09:35.037Z,18807.7695
2023-03-29T05:10:33.977Z,18808.3086
2023-03-29T05:11:35.678Z,18811.8457
2023-03-29T05:12:37.285Z,18794.5391
2023-03-29T05:13:38.937Z,18782.9238
2023-03-29T05:14:40.589Z,18756.0000
2023-03-29T05:15:42.267Z,18710.9238
2023-03-29T05:16:43.999Z,18737.2305
2023-03-29T05:17:45.576Z,18716.3848
2023-03-29T05:18:47.214Z,18727.7695
2023-03-29T05:19:48.883Z,18720.4609
2023-03-29T05:20:50.535Z,18710.2305
2023-03-29T05:21:52.219Z,18708.2305
2023-03-29T05:22:53.858Z,18703.0762
2023-03-29T05:23:55.503Z,18700.4609
2023-03-29T05:24:57.135Z,18688.5391
2023-03-29T05:25:58.808Z,18681.0762
2023-03-29T05:27:00.468Z,18672.3086
2023-03-29T05:28:02.112Z,18673.3086
2023-03-29T05:29:03.749Z,18669.6152
2023-03-29T05:30:05.422Z,18665.6914
2023-03-29T05:31:07.068Z,18662.0000
2023-03-29T05:32:08.857Z,18666.0000
2023-03-29T05:33:10.405Z,18669.3848
2023-03-29T05:34:12.032Z,18664.9238
2023-03-29T05:35:13.661Z,18663.3086
2023-03-29T05:36:15.408Z,18663.6152
2023-03-29T05:37:17.024Z,18663.6914
2023-03-29T05:38:18.648Z,18660.4609
2023-03-29T05:39:20.283Z,18656.6152
2023-03-29T05:40:21.966Z,18653.6152
2023-03-29T05:41:23.622Z,18644.0000
2023-03-29T05:42:25.283Z,18634.6914
2023-03-29T05:43:26.898Z,18630.3848
2023-03-29T05:44:28.581Z,18631.5391
2023-03-29T05:45:30.276Z,18658.4609
2023-03-29T05:46:31.896Z,18670.0762
2023-03-29T05:47:33.637Z,18680.6914
2023-03-29T05:48:35.303Z,18693.6152
2023-03-29T05:49:36.852Z,18694.8457
2023-03-29T05:50:38.476Z,18692.8457
2023-03-29T05:51:40.145Z,18696.5391
2023-03-29T05:52:41.810Z,18693.1543
2023-03-29T05:53:43.466Z,18695.6152
2023-03-29T05:54:45.135Z,18687.7695
2023-03-29T05:55:46.782Z,18679.0762
2023-03-29T05:56:48.456Z,18671.7695
2023-03-29T05:57:50.106Z,18670.4609
2023-03-29T05:58:53.657Z,18669.0000
2023-03-29T05:59:53.411Z,18663.6914
2023-03-29T06:00:55.010Z,18659.2305
2023-03-29T06:01:56.734Z,18658.3086
2023-03-29T06:03:03.780Z,18654.0000
2023-03-29T06:04:00.102Z,18650.8340
2023-03-29T06:05:01.657Z,18654.3848
2023-03-29T06:06:03.310Z,18648.6914
2023-03-29T06:07:04.934Z,18645.8457
2023-03-29T06:08:06.631Z,18644.0762
2023-03-29T06:09:08.250Z,18645.4609
2023-03-29T06:10:09.918Z,18692.6914
2023-03-29T06:11:11.543Z,19033.8457
2023-03-29T06:12:13.216Z,19212.6914
2023-03-29T06:13:14.878Z,19284.9238
2023-03-29T06:14:16.516Z,19315.8457
2023-03-29T06:15:18.156Z,19360.7695
2023-03-29T06:16:19.839Z,19386.0000
2023-03-29T06:17:21.457Z,19407.0762
2023-03-29T06:18:23.180Z,19374.0000
2023-03-29T06:19:24.764Z,19301.6914
2023-03-29T06:20:26.447Z,19281.6914
2023-03-29T06:21:28.063Z,19266.8457
2023-03-29T06:22:29.754Z,19243.3848
2023-03-29T06:23:31.411Z,19230.7695
2023-03-29T06:24:33.044Z,19235.5391
2023-03-29T06:25:34.699Z,19215.1543
2023-03-29T06:26:36.349Z,19198.0000
2023-03-29T06:27:38.008Z,19182.1543
2023-03-29T06:28:39.702Z,19151.6914
2023-03-29T06:29:41.298Z,19032.4609
2023-03-29T06:30:42.962Z,18908.4609
2023-03-29T06:31:44.668Z,18827.3848
2023-03-29T06:32:46.332Z,18642.4609
2023-03-29T06:33:47.931Z,18649.4609
2023-03-29T06:34:49.600Z,18682.2305
2023-03-29T06:35:51.305Z,18713.6914
2023-03-29T06:36:52.888Z,18743.4609
2023-03-29T06:37:54.562Z,18769.9238
2023-03-29T06:38:56.240Z,18775.3848
2023-03-29T06:39:57.841Z,18784.0762
2023-03-29T06:40:59.610Z,18782.6914
2023-03-29T06:42:10.057Z,18589.3848
2023-03-29T06:43:02.804Z,18627.5000
2023-03-29T06:44:04.450Z,18677.6914
2023-03-29T06:45:06.138Z,18694.1543
2023-03-29T06:46:07.790Z,18704.2305
2023-03-29T06:47:09.528Z,18718.2305
2023-03-29T06:48:11.171Z,18728.1543
2023-03-29T06:49:12.869Z,18744.1543
2023-03-29T06:50:14.445Z,18751.9238
2023-03-29T06:51:16.118Z,18757.2305
2023-03-29T06:52:17.744Z,18757.1543
2023-03-29T06:53:19.415Z,18761.1543
2023-03-29T06:54:21.142Z,18756.9238
2023-03-29T06:55:22.721Z,18754.1543
2023-03-29T06:56:24.370Z,18746.5391
2023-03-29T06:57:26.177Z,18738.8457
2023-03-29T06:58:27.662Z,18748.2305
2023-03-29T06:59:29.368Z,18747.9238
2023-03-29T07:00:30.988Z,18745.4609
2023-03-29T07:01:32.651Z,18742.0762
2023-03-29T07:02:34.285Z,18735.3848
2023-03-29T07:03:35.959Z,18734.3848
2023-03-29T07:04:37.670Z,18731.6914
2023-03-29T07:05:39.311Z,18730.6914
2023-03-29T07:06:40.889Z,18729.1543
2023-03-29T07:07:42.559Z,18730.4609
2023-03-29T07:08:44.202Z,18728.3086
2023-03-29T07:09:45.880Z,18727.8457
2023-03-29T07:10:47.602Z,18726.4609
2023-03-29T07:11:49.168Z,18724.8457
2023-03-29T07:12:50.796Z,18727.1543
2023-03-29T07:13:52.490Z,18724.0000
2023-03-29T07:14:54.147Z,18724.5391
2023-03-29T07:15:55.838Z,18720.0000
2023-03-29T07:16:57.445Z,18720.3848
2023-03-29T07:17:59.181Z,18716.6152
2023-03-29T07:19:00.738Z,18713.9238
2023-03-29T07:20:02.499Z,18714.3086
2023-03-29T07:21:04.154Z,18711.9238
2023-03-29T07:22:05.708Z,18711.2305
2023-03-29T07:23:07.370Z,18712.6914
2023-03-29T07:24:09.007Z,18710.3848
2023-03-29T07:25:10.693Z,18708.0762
2023-03-29T07:26:12.323Z,18706.9238
2023-03-29T07:27:13.977Z,18702.6914
2023-03-29T07:28:15.670Z,18704.1543
2023-03-29T07:29:17.288Z,18705.0762
2023-03-29T07:30:18.942Z,18700.7695
2023-03-29T07:31:20.558Z,18700.0762
2023-03-29T07:32:22.497Z,18697.6914
2023-03-29T07:33:23.998Z,18697.4609
2023-03-29T07:34:25.540Z,18696.1543
2023-03-29T07:35:27.189Z,18691.4609
2023-03-29T07:36:28.870Z,18691.2305
2023-03-29T07:37:30.493Z,18694.2305
2023-03-29T07:38:32.179Z,18691.8457
2023-03-29T07:39:33.797Z,18689.2305
2023-03-29T07:40:35.476Z,18686.8457
2023-03-29T07:41:37.099Z,18684.7695
2023-03-29T07:42:38.792Z,18684.0762
2023-03-29T07:43:40.422Z,18681.0762
2023-03-29T07:44:42.097Z,18681.4609
2023-03-29T07:45:43.743Z,18684.5391
2023-03-29T07:46:45.412Z,18679.1543
2023-03-29T07:47:47.032Z,18678.9238
2023-03-29T07:48:48.696Z,18677.5391
2023-03-29T07:49:50.330Z,18673.7695
2023-03-29T07:50:52.048Z,18674.2305
2023-03-29T07:51:53.635Z,18678.6914
2023-03-29T07:52:55.286Z,18671.2305
2023-03-29T07:53:56.958Z,18672.8457
2023-03-29T07:54:58.589Z,18675.0000
2023-03-29T07:56:00.270Z,18669.5391
2023-03-29T07:57:01.978Z,18673.2305
2023-03-29T07:58:03.548Z,18672.9238
2023-03-29T07:59:05.221Z,18668.4609
2023-03-29T08:00:06.856Z,18671.8457
2023-03-29T08:01:08.639Z,18676.8457
2023-03-29T08:02:10.161Z,18676.6914
2023-03-29T08:03:11.895Z,18680.6152
2023-03-29T08:04:13.534Z,18682.6152
2023-03-29T08:05:17.476Z,18685.7695
2023-03-29T08:06:16.838Z,18683.3340
2023-03-29T08:07:18.967Z,18685.2305
2023-03-29T08:08:20.078Z,18684.8457
2023-03-29T08:09:21.766Z,18687.8457
2023-03-29T08:10:23.384Z,18684.7695
2023-03-29T08:11:25.074Z,18683.8457
2023-03-29T08:12:26.700Z,18682.1543
2023-03-29T08:13:28.362Z,18681.5391
2023-03-29T08:14:30.009Z,18680.6152
2023-03-29T08:15:31.667Z,18681.5391
2023-03-29T08:16:33.406Z,18678.4609
2023-03-29T08:17:35.082Z,18678.3848
2023-03-29T08:18:36.737Z,18680.5391
2023-03-29T08:19:38.290Z,18677.7695
2023-03-29T08:20:39.919Z,18679.4609
2023-03-29T08:21:41.619Z,18676.2305
2023-03-29T08:22:43.228Z,18673.3086
2023-03-29T08:23:44.918Z,18672.3086
2023-03-29T08:24:46.547Z,18672.3086
2023-03-29T08:25:48.247Z,18673.4609
2023-03-29T08:26:49.883Z,18668.8457
2023-03-29T08:27:51.520Z,18673.0762
2023-03-29T08:28:53.157Z,18669.8457
2023-03-29T08:29:54.836Z,18666.8457
2023-03-29T08:30:56.485Z,18671.1543
2023-03-29T08:31:58.159Z,18668.4609
2023-03-29T08:32:59.787Z,18665.2305
2023-03-29T08:34:01.437Z,18665.9238
2023-03-29T08:35:03.078Z,18664.1543
2023-03-29T08:36:04.780Z,18666.9238
2023-03-29T08:37:06.414Z,18665.0000
2023-03-29T08:38:08.067Z,18665.0000
2023-03-29T08:39:09.686Z,18665.3848
2023-03-29T08:40:11.363Z,18663.8457
2023-03-29T08:41:13.000Z,18636.6914
2023-03-29T08:42:14.689Z,18613.3848
2023-03-29T08:43:16.287Z,18616.5391
2023-03-29T08:44:17.974Z,18727.6152
2023-03-29T08:45:19.646Z,18764.3086
2023-03-29T08:46:21.346Z,18668.8457
2023-03-29T08:47:22.933Z,18661.0000
2023-03-29T08:48:24.573Z,18667.6152
2023-03-29T08:49:26.251Z,18660.2305
2023-03-29T08:50:27.888Z,18657.5391
2023-03-29T08:51:29.532Z,18653.0762
2023-03-29T08:52:31.290Z,18653.2305
2023-03-29T08:53:32.858Z,18649.1543
2023-03-29T08:54:34.517Z,18648.1543
2023-03-29T08:55:36.145Z,18646.5391
2023-03-29T08:56:37.835Z,18646.0000
2023-03-29T08:57:39.559Z,18642.2305
2023-03-29T08:58:41.134Z,18638.7695
2023-03-29T08:59:42.743Z,18635.4609
2023-03-29T09:00:44.431Z,18637.0762
2023-03-29T09:01:48.447Z,18640.4609
2023-03-29T09:02:47.829Z,18638.4609
2023-03-29T09:03:49.473Z,18640.6152
2023-03-29T09:04:51.013Z,18638.6914
2023-03-29T09:05:52.649Z,18636.7695
2023-03-29T09:06:54.339Z,18640.6152
2023-03-29T09:07:55.976Z,18637.3086
2023-03-29T09:08:57.633Z,18638.8457
2023-03-29T09:09:59.263Z,18633.6914
2023-03-29T09:11:01.091Z,18631.6152
2023-03-29T09:12:02.570Z,18626.0762
2023-03-29T09:13:04.299Z,18630.0762
2023-03-29T09:14:05.879Z,18624.3848
2023-03-29T09:15:07.549Z,18619.3848
2023-03-29T09:16:09.173Z,18615.9238
2023-03-29T09:17:10.868Z,18614.6152
2023-03-29T09:18:12.556Z,18615.0762
2023-03-29T09:19:14.172Z,18608.3848
2023-03-29T09:20:15.802Z,18608.0762
2023-03-29T09:21:17.462Z,18606.5391
2023-03-29T09:22:20.078Z,18609.0000
2023-03-29T09:23:20.793Z,18606.9238
2023-03-29T09:24:22.423Z,18601.6152
2023-03-29T09:25:24.097Z,18607.9238
2023-03-29T09:26:25.740Z,18604.0762
2023-03-29T09:27:27.393Z,18601.3086
2023-03-29T09:28:29.049Z,18600.5391
2023-03-29T09:29:30.703Z,18603.3848
2023-03-29T09:30:32.360Z,18604.4609
2023-03-29T09:31:34.042Z,18601.6152
2023-03-29T09:32:35.706Z,18603.4609
2023-03-29T09:33:37.406Z,18598.8457
2023-03-29T09:34:38.970Z,18599.4609
2023-03-29T09:35:40.640Z,18599.2305
2023-03-29T09:36:42.269Z,18597.3086
2023-03-29T09:37:43.934Z,18599.6152
2023-03-29T09:38:45.604Z,18595.4609
2023-03-29T09:39:47.267Z,18597.1543
2023-03-29T09:40:48.900Z,18599.1543
2023-03-29T09:41:50.545Z,18594.6914
2023-03-29T09:42:52.331Z,18598.0762
2023-03-29T09:43:53.896Z,18593.8457
2023-03-29T09:44:55.489Z,18594.2305
2023-03-29T09:45:57.238Z,18595.1543
2023-03-29T09:46:58.857Z,18594.5391
2023-03-29T09:48:00.572Z,18591.9238
2023-03-29T09:49:02.169Z,18594.6914
2023-03-29T09:50:03.799Z,18592.5391
2023-03-29T09:51:05.431Z,18593.0000
2023-03-29T09:52:07.075Z,18589.6152
2023-03-29T09:53:08.726Z,18590.4609
2023-03-29T09:54:10.436Z,18591.2305
2023-03-29T09:55:12.030Z,18590.6914
2023-03-29T09:56:13.699Z,18588.6914
2023-03-29T09:57:15.415Z,18588.9238
2023-03-29T09:58:17.026Z,18586.5391
2023-03-29T09:59:18.691Z,18583.2305
2023-03-29T10:00:20.313Z,18587.9238
2023-03-29T10:01:21.949Z,18585.8457
2023-03-29T10:02:23.628Z,18587.2305
2023-03-29T10:03:25.241Z,18579.6152
2023-03-29T10:04:26.992Z,18581.2305
2023-03-29T10:05:28.548Z,18579.6152
2023-03-29T10:06:30.215Z,18576.3848
2023-03-29T10:07:31.852Z,18567.8457
2023-03-29T10:08:33.578Z,18567.3086
2023-03-29T10:09:35.200Z,18558.3848
2023-03-29T10:10:36.889Z,18547.6914
2023-03-29T10:11:38.498Z,18542.6152
2023-03-29T10:12:40.138Z,18540.9238
2023-03-29T10:13:41.777Z,18554.3086
2023-03-29T10:14:43.468Z,18556.0000
2023-03-29T10:15:45.103Z,18558.1543
2023-03-29T10:16:46.874Z,18560.0762
2023-03-29T10:17:48.467Z,18560.3086
2023-03-29T10:18:50.061Z,18556.0000
2023-03-29T10:19:51.741Z,18547.3086
2023-03-29T10:20:53.384Z,18538.6914
2023-03-29T10:21:55.023Z,18536.6914
2023-03-29T10:22:56.674Z,18540.6152
2023-03-29T10:23:58.304Z,18529.4609
2023-03-29T10:25:00.031Z,18529.8457
2023-03-29T10:26:01.625Z,18532.2305
2023-03-29T10:27:03.290Z,18526.8457
2023-03-29T10:28:04.935Z,18497.9238
2023-03-29T10:29:06.594Z,18405.3086
2023-03-29T10:30:08.253Z,18390.6914
2023-03-29T10:31:09.928Z,18406.9238
2023-03-29T10:32:11.574Z,18432.6914
2023-03-29T10:33:13.219Z,18445.5391
2023-03-29T10:34:14.830Z,18431.0762
2023-03-29T10:35:16.536Z,18321.3086
2023-03-29T10:36:18.156Z,18352.1543
2023-03-29T10:37:19.818Z,18381.8457
2023-03-29T10:38:21.486Z,18404.6914
2023-03-29T10:39:23.112Z,18399.1543
2023-03-29T10:40:24.787Z,18357.0762
2023-03-29T10:41:26.414Z,18344.6152
2023-03-29T10:42:28.047Z,18366.3086
2023-03-29T10:43:29.799Z,18396.7695
2023-03-29T10:44:33.174Z,18417.0000
2023-03-29T10:45:33.073Z,18382.5391
2023-03-29T10:46:34.789Z,18469.8457
2023-03-29T10:47:36.361Z,18750.6152
2023-03-29T10:48:38.023Z,18870.2305
2023-03-29T10:49:39.656Z,18566.2305
2023-03-29T10:50:41.367Z,18528.1543
2023-03-29T10:51:43.018Z,18428.0000
2023-03-29T10:52:44.650Z,18356.3086
2023-03-29T10:53:46.325Z,18399.3086
2023-03-29T10:54:47.956Z,18462.2305
2023-03-29T10:55:49.657Z,18478.9238
2023-03-29T10:56:52.558Z,18467.7695
2023-03-29T10:57:52.925Z,18482.6914
2023-03-29T10:58:54.574Z,18455.4609
2023-03-29T10:59:56.218Z,18472.8457
2023-03-29T11:00:57.875Z,18466.6914
2023-03-29T11:01:59.561Z,18446.0000
2023-03-29T11:03:01.217Z,18458.0762
2023-03-29T11:04:02.909Z,18462.4609
2023-03-29T11:05:04.441Z,18448.0762
2023-03-29T11:06:06.141Z,18426.4609
2023-03-29T11:07:07.751Z,18461.3086
2023-03-29T11:08:09.439Z,18439.8457
2023-03-29T11:09:11.054Z,18425.8457
2023-03-29T11:10:12.738Z,18455.3848
2023-03-29T11:11:14.406Z,18484.0762
2023-03-29T11:12:16.659Z,18481.4609
2023-03-29T11:13:17.694Z,18485.7695
2023-03-29T11:14:19.331Z,18493.6914
2023-03-29T11:15:20.950Z,18485.8457
2023-03-29T11:16:22.906Z,18476.6152
2023-03-29T11:17:24.275Z,18477.0762
2023-03-29T11:18:25.929Z,18483.3086
2023-03-29T11:19:27.574Z,18485.7695
2023-03-29T11:20:29.241Z,18490.0762
2023-03-29T11:21:30.897Z,18497.6152
2023-03-29T11:22:32.560Z,18498.9238
2023-03-29T11:23:34.196Z,18500.5391